sensor_id;sensor_type;location;lat;lon;timestamp;pressure;altitude;pressure_sealevel;temperature;humidity
76124;BME280;65173;48.066;20.976;2023-08-21T00:02:36;100779.59;;;23.12;100.00
76124;BME280;65173;48.066;20.976;2023-08-21T00:05:39;100778.06;;;23.11;100.00
76124;BME280;65173;48.066;20.976;2023-08-21T00:08:42;100771.44;;;23.08;100.00
76124;BME280;65173;48.066;20.976;2023-08-21T00:11:45;100778.81;;;23.15;100.00
76124;BME280;65173;48.066;20.976;2023-08-21T00:14:48;100774.19;;;23.23;100.00
76124;BME280;65173;48.066;20.976;2023-08-21T00:17:50;100781.16;;;23.13;100.00
76124;BME280;65173;48.066;20.976;2023-08-21T00:20:53;100773.00;;;23.16;100.00
76124;BME280;65173;48.066;20.976;2023-08-21T00:23:55;100783.09;;;23.12;100.00
76124;BME280;65173;48.066;20.976;2023-08-21T00:26:58;100782.72;;;23.07;100.00
76124;BME280;65173;48.066;20.976;2023-08-21T00:30:00;100779.59;;;23.12;100.00
76124;BME280;65173;48.066;20.976;2023-08-21T00:33:03;100778.41;;;23.02;100.00
76124;BME280;65173;48.066;20.976;2023-08-21T00:36:05;100783.06;;;23.02;100.00
76124;BME280;65173;48.066;20.976;2023-08-21T00:39:08;100789.69;;;23.04;100.00
76124;BME280;65173;48.066;20.976;2023-08-21T00:42:10;100789.66;;;22.97;100.00
76124;BME280;65173;48.066;20.976;2023-08-21T00:45:13;100791.59;;;22.93;100.00
76124;BME280;65173;48.066;20.976;2023-08-21T00:48:16;100802.47;;;22.90;100.00
76124;BME280;65173;48.066;20.976;2023-08-21T00:51:20;100793.91;;;22.84;100.00
76124;BME280;65173;48.066;20.976;2023-08-21T00:54:22;100799.72;;;22.86;100.00
76124;BME280;65173;48.066;20.976;2023-08-21T00:57:25;100793.50;;;22.85;100.00
76124;BME280;65173;48.066;20.976;2023-08-21T01:00:28;100789.25;;;22.84;100.00
76124;BME280;65173;48.066;20.976;2023-08-21T01:03:32;100797.78;;;22.87;100.00
76124;BME280;65173;48.066;20.976;2023-08-21T01:06:34;100809.34;;;22.76;100.00
76124;BME280;65173;48.066;20.976;2023-08-21T01:12:54;100804.63;;;22.59;100.00
76124;BME280;65173;48.066;20.976;2023-08-21T01:15:59;100806.94;;;22.54;100.00
76124;BME280;65173;48.066;20.976;2023-08-21T01:19:03;100808.09;;;22.49;100.00
76124;BME280;65173;48.066;20.976;2023-08-21T01:22:09;100808.03;;;22.38;100.00
76124;BME280;65173;48.066;20.976;2023-08-21T01:25:12;100807.22;;;22.31;100.00
76124;BME280;65173;48.066;20.976;2023-08-21T01:28:15;100810.34;;;22.40;100.00
76124;BME280;65173;48.066;20.976;2023-08-21T01:31:23;100810.31;;;22.33;100.00
76124;BME280;65173;48.066;20.976;2023-08-21T01:34:29;100818.84;;;22.31;100.00
76124;BME280;65173;48.066;20.976;2023-08-21T01:37:35;100811.84;;;22.27;100.00
76124;BME280;65173;48.066;20.976;2023-08-21T01:40:39;100818.75;;;22.13;100.00
76124;BME280;65173;48.066;20.976;2023-08-21T01:43:42;100814.00;;;22.00;100.00
76124;BME280;65173;48.066;20.976;2023-08-21T01:46:44;100817.22;;;22.16;100.00
76124;BME280;65173;48.066;20.976;2023-08-21T01:49:47;100814.13;;;22.17;100.00
76124;BME280;65173;48.066;20.976;2023-08-21T01:52:49;100819.56;;;22.21;100.00
76124;BME280;65173;48.066;20.976;2023-08-21T01:55:52;100818.78;;;22.21;100.00
76124;BME280;65173;48.066;20.976;2023-08-21T01:58:54;100821.50;;;22.21;100.00
76124;BME280;65173;48.066;20.976;2023-08-21T02:01:57;100833.09;;;22.14;100.00
76124;BME280;65173;48.066;20.976;2023-08-21T02:04:59;100825.66;;;22.07;100.00
76124;BME280;65173;48.066;20.976;2023-08-21T02:08:02;100818.78;;;22.21;100.00
76124;BME280;65173;48.066;20.976;2023-08-21T02:11:04;100818.38;;;22.19;100.00
76124;BME280;65173;48.066;20.976;2023-08-21T02:14:07;100830.03;;;22.19;100.00
76124;BME280;65173;48.066;20.976;2023-08-21T02:17:09;100826.94;;;22.24;100.00
76124;BME280;65173;48.066;20.976;2023-08-21T02:20:12;100826.50;;;22.15;100.00
76124;BME280;65173;48.066;20.976;2023-08-21T02:23:15;100828.03;;;22.12;100.00
76124;BME280;65173;48.066;20.976;2023-08-21T02:26:17;100825.72;;;22.14;100.00
76124;BME280;65173;48.066;20.976;2023-08-21T02:29:22;100819.88;;;22.09;100.00
76124;BME280;65173;48.066;20.976;2023-08-21T02:32:24;100822.19;;;22.10;100.00
76124;BME280;65173;48.066;20.976;2023-08-21T02:35:27;100822.53;;;22.05;100.00
76124;BME280;65173;48.066;20.976;2023-08-21T02:38:30;100819.78;;;21.98;100.00
76124;BME280;65173;48.066;20.976;2023-08-21T02:41:32;100826.31;;;21.94;100.00
76124;BME280;65173;48.066;20.976;2023-08-21T02:44:35;100824.63;;;21.75;100.00
76124;BME280;65173;48.066;20.976;2023-08-21T02:47:38;100827.94;;;21.58;100.00
76124;BME280;65173;48.066;20.976;2023-08-21T02:50:41;100820.34;;;21.74;100.00
76124;BME280;65173;48.066;20.976;2023-08-21T02:53:44;100821.78;;;21.61;100.00
76124;BME280;65173;48.066;20.976;2023-08-21T02:56:46;100822.06;;;21.52;100.00
76124;BME280;65173;48.066;20.976;2023-08-21T02:59:50;100813.56;;;21.54;100.00
76124;BME280;65173;48.066;20.976;2023-08-21T03:02:52;100806.28;;;21.61;100.00
76124;BME280;65173;48.066;20.976;2023-08-21T03:05:55;100810.97;;;21.68;100.00
76124;BME280;65173;48.066;20.976;2023-08-21T03:08:57;100809.78;;;21.62;100.00
76124;BME280;65173;48.066;20.976;2023-08-21T03:12:00;100814.88;;;21.67;100.00
76124;BME280;65173;48.066;20.976;2023-08-21T03:15:03;100813.66;;;21.61;100.00
76124;BME280;65173;48.066;20.976;2023-08-21T03:18:05;100816.31;;;21.57;100.00
76124;BME280;65173;48.066;20.976;2023-08-21T03:21:08;100820.19;;;21.56;100.00
76124;BME280;65173;48.066;20.976;2023-08-21T03:24:10;100825.16;;;21.51;100.00
76124;BME280;65173;48.066;20.976;2023-08-21T03:27:15;100824.78;;;21.48;100.00
76124;BME280;65173;48.066;20.976;2023-08-21T03:30:19;100814.66;;;21.45;100.00
76124;BME280;65173;48.066;20.976;2023-08-21T03:33:22;100814.25;;;21.43;100.00
76124;BME280;65173;48.066;20.976;2023-08-21T03:36:24;100824.38;;;21.50;100.00
76124;BME280;65173;48.066;20.976;2023-08-21T03:39:35;100813.56;;;21.54;100.00
76124;BME280;65173;48.066;20.976;2023-08-21T03:42:38;100807.56;;;21.34;100.00
76124;BME280;65173;48.066;20.976;2023-08-21T03:45:41;100817.63;;;21.30;100.00
76124;BME280;65173;48.066;20.976;2023-08-21T03:48:43;100821.13;;;21.30;100.00
76124;BME280;65173;48.066;20.976;2023-08-21T03:51:46;100824.22;;;21.32;100.00
76124;BME280;65173;48.066;20.976;2023-08-21T03:54:48;100812.38;;;21.47;100.00
76124;BME280;65173;48.066;20.976;2023-08-21T03:57:51;100818.88;;;21.39;100.00
76124;BME280;65173;48.066;20.976;2023-08-21T04:00:53;100823.28;;;21.55;100.00
76124;BME280;65173;48.066;20.976;2023-08-21T04:03:56;100810.13;;;21.57;100.00
76124;BME280;65173;48.066;20.976;2023-08-21T04:06:58;100812.16;;;21.67;100.00
76124;BME280;65173;48.066;20.976;2023-08-21T04:10:01;100820.28;;;21.67;100.00
76124;BME280;65173;48.066;20.976;2023-08-21T04:13:04;100821.13;;;21.74;100.00
76124;BME280;65173;48.066;20.976;2023-08-21T04:16:06;100821.88;;;21.71;100.00
76124;BME280;65173;48.066;20.976;2023-08-21T04:19:10;100814.72;;;21.49;100.00
76124;BME280;65173;48.066;20.976;2023-08-21T04:22:13;100820.59;;;21.58;100.00
76124;BME280;65173;48.066;20.976;2023-08-21T04:25:15;100820.31;;;21.70;100.00
76124;BME280;65173;48.066;20.976;2023-08-21T04:28:18;100822.59;;;21.65;100.00
76124;BME280;65173;48.066;20.976;2023-08-21T04:31:20;100822.91;;;21.56;100.00
76124;BME280;65173;48.066;20.976;2023-08-21T04:34:24;100810.59;;;21.66;100.00
76124;BME280;65173;48.066;20.976;2023-08-21T04:37:26;100826.25;;;21.87;100.00
76124;BME280;65173;48.066;20.976;2023-08-21T04:40:30;100832.25;;;21.62;100.00
76124;BME280;65173;48.066;20.976;2023-08-21T04:43:32;100826.81;;;21.59;100.00
76124;BME280;65173;48.066;20.976;2023-08-21T04:46:35;100836.72;;;21.85;100.00
76124;BME280;65173;48.066;20.976;2023-08-21T04:49:39;100837.91;;;21.91;100.00
76124;BME280;65173;48.066;20.976;2023-08-21T04:52:41;100841.81;;;21.93;100.00
76124;BME280;65173;48.066;20.976;2023-08-21T04:55:44;100839.91;;;21.97;100.00
76124;BME280;65173;48.066;20.976;2023-08-21T04:58:48;100842.59;;;21.94;100.00
76124;BME280;65173;48.066;20.976;2023-08-21T05:01:52;100841.59;;;22.09;100.00
76124;BME280;65173;48.066;20.976;2023-08-21T05:04:55;100842.03;;;22.14;100.00
76124;BME280;65173;48.066;20.976;2023-08-21T05:07:58;100849.81;;;22.23;100.00
76124;BME280;65173;48.066;20.976;2023-08-21T05:11:01;100846.00;;;22.31;100.00
76124;BME280;65173;48.066;20.976;2023-08-21T05:14:07;100845.19;;;22.27;100.00
76124;BME280;65173;48.066;20.976;2023-08-21T05:17:10;100842.47;;;22.27;100.00
76124;BME280;65173;48.066;20.976;2023-08-21T05:20:12;100846.06;;;22.38;100.00
76124;BME280;65173;48.066;20.976;2023-08-21T05:23:17;100847.56;;;22.32;100.00
76124;BME280;65173;48.066;20.976;2023-08-21T05:26:22;100840.72;;;22.56;100.00
76124;BME280;65173;48.066;20.976;2023-08-21T05:29:24;100842.75;;;22.70;100.00
76124;BME280;65173;48.066;20.976;2023-08-21T05:32:27;100838.03;;;22.63;100.00
76124;BME280;65173;48.066;20.976;2023-08-21T05:35:36;100847.47;;;22.83;100.00
76124;BME280;65173;48.066;20.976;2023-08-21T05:38:39;100849.44;;;22.87;100.00
76124;BME280;65173;48.066;20.976;2023-08-21T05:41:41;100847.53;;;22.98;100.00
76124;BME280;65173;48.066;20.976;2023-08-21T05:44:44;100852.25;;;23.15;100.00
76124;BME280;65173;48.066;20.976;2023-08-21T05:47:46;100858.13;;;23.24;100.00
76124;BME280;65173;48.066;20.976;2023-08-21T05:50:52;100860.94;;;23.67;100.00
76124;BME280;65173;48.066;20.976;2023-08-21T05:53:55;100853.56;;;23.74;100.00
76124;BME280;65173;48.066;20.976;2023-08-21T05:56:57;100857.84;;;24.14;100.00
76124;BME280;65173;48.066;20.976;2023-08-21T06:00:00;100850.03;;;24.45;100.00
76124;BME280;65173;48.066;20.976;2023-08-21T06:03:05;100851.88;;;24.76;100.00
76124;BME280;65173;48.066;20.976;2023-08-21T06:06:19;100851.09;;;24.79;100.00
76124;BME280;65173;48.066;20.976;2023-08-21T06:09:21;100852.03;;;25.28;100.00
76124;BME280;65173;48.066;20.976;2023-08-21T06:12:24;100862.94;;;25.94;100.00
76124;BME280;65173;48.066;20.976;2023-08-21T06:15:27;100858.25;;;26.36;100.00
76124;BME280;65173;48.066;20.976;2023-08-21T06:18:30;100864.41;;;26.47;100.00
76124;BME280;65173;48.066;20.976;2023-08-21T06:21:33;100858.41;;;26.59;100.00
76124;BME280;65173;48.066;20.976;2023-08-21T06:24:35;100862.44;;;27.15;100.00
76124;BME280;65173;48.066;20.976;2023-08-21T06:27:41;100861.91;;;27.24;100.00
76124;BME280;65173;48.066;20.976;2023-08-21T06:31:00;100858.47;;;27.74;100.00
76124;BME280;65173;48.066;20.976;2023-08-21T06:34:07;100860.38;;;28.00;100.00
76124;BME280;65173;48.066;20.976;2023-08-21T06:37:10;100857.84;;;28.32;100.00
76124;BME280;65173;48.066;20.976;2023-08-21T06:40:12;100858.16;;;28.78;100.00
76124;BME280;65173;48.066;20.976;2023-08-21T06:43:15;100854.38;;;28.91;100.00
76124;BME280;65173;48.066;20.976;2023-08-21T06:46:21;100856.38;;;29.07;96.21
76124;BME280;65173;48.066;20.976;2023-08-21T06:49:24;100857.94;;;29.08;97.39
76124;BME280;65173;48.066;20.976;2023-08-21T06:52:26;100868.44;;;29.29;96.26
76124;BME280;65173;48.066;20.976;2023-08-21T06:55:29;100875.97;;;29.61;93.08
76124;BME280;65173;48.066;20.976;2023-08-21T06:58:32;100869.56;;;29.68;95.57
76124;BME280;65173;48.066;20.976;2023-08-21T07:01:35;100869.72;;;30.10;98.22
76124;BME280;65173;48.066;20.976;2023-08-21T07:04:37;100871.72;;;30.67;93.72
76124;BME280;65173;48.066;20.976;2023-08-21T07:07:40;100872.59;;;30.64;87.00
76124;BME280;65173;48.066;20.976;2023-08-21T07:10:42;100871.25;;;31.10;83.56
76124;BME280;65173;48.066;20.976;2023-08-21T07:13:45;100870.31;;;31.17;88.95
76124;BME280;65173;48.066;20.976;2023-08-21T07:16:47;100873.34;;;30.93;80.48
76124;BME280;65173;48.066;20.976;2023-08-21T07:19:50;100866.63;;;31.58;83.19
76124;BME280;65173;48.066;20.976;2023-08-21T07:22:55;100872.28;;;31.67;79.61
76124;BME280;65173;48.066;20.976;2023-08-21T07:25:58;100862.78;;;31.81;76.02
76124;BME280;65173;48.066;20.976;2023-08-21T07:29:00;100873.00;;;32.40;75.77
76124;BME280;65173;48.066;20.976;2023-08-21T07:32:03;100867.34;;;32.87;74.82
76124;BME280;65173;48.066;20.976;2023-08-21T07:35:06;100871.63;;;32.66;75.17
76124;BME280;65173;48.066;20.976;2023-08-21T07:38:08;100866.22;;;33.16;76.98
76124;BME280;65173;48.066;20.976;2023-08-21T07:41:12;100870.25;;;33.24;71.72
76124;BME280;65173;48.066;20.976;2023-08-21T07:44:15;100869.38;;;32.52;75.83
76124;BME280;65173;48.066;20.976;2023-08-21T07:47:17;100865.53;;;32.93;75.00
76124;BME280;65173;48.066;20.976;2023-08-21T07:50:20;100860.31;;;32.95;74.21
76124;BME280;65173;48.066;20.976;2023-08-21T07:53:23;100860.13;;;33.21;70.65
76124;BME280;65173;48.066;20.976;2023-08-21T07:56:25;100852.06;;;33.94;70.98
76124;BME280;65173;48.066;20.976;2023-08-21T07:59:28;100859.06;;;33.67;67.31
76124;BME280;65173;48.066;20.976;2023-08-21T08:02:30;100858.50;;;33.82;66.45
76124;BME280;65173;48.066;20.976;2023-08-21T08:05:34;100858.31;;;33.67;64.38
76124;BME280;65173;48.066;20.976;2023-08-21T11:16:59;100771.31;;;39.44;33.99
76124;BME280;65173;48.066;20.976;2023-08-21T11:20:03;100763.03;;;39.83;32.99
76124;BME280;65173;48.066;20.976;2023-08-21T11:57:20;100746.63;;;38.83;34.14
76124;BME280;65173;48.066;20.976;2023-08-21T12:00:28;100745.75;;;39.03;34.29
76124;BME280;65173;48.066;20.976;2023-08-21T12:03:36;100747.41;;;39.32;33.88
76124;BME280;65173;48.066;20.976;2023-08-21T12:06:43;100742.69;;;39.60;35.39
76124;BME280;65173;48.066;20.976;2023-08-21T12:09:47;100737.59;;;39.53;34.61
76124;BME280;65173;48.066;20.976;2023-08-21T12:12:52;100734.63;;;39.84;34.90
76124;BME280;65173;48.066;20.976;2023-08-21T12:15:55;100735.59;;;39.65;35.26
76124;BME280;65173;48.066;20.976;2023-08-21T12:18:57;100727.50;;;39.83;33.44
76124;BME280;65173;48.066;20.976;2023-08-21T12:22:00;100734.19;;;40.08;34.09
76124;BME280;65173;48.066;20.976;2023-08-21T12:25:02;100734.59;;;39.56;32.85
76124;BME280;65173;48.066;20.976;2023-08-21T12:28:06;100736.88;;;39.58;32.56
76124;BME280;65173;48.066;20.976;2023-08-21T12:31:11;100736.94;;;39.15;34.52
76124;BME280;65173;48.066;20.976;2023-08-21T12:34:13;100733.00;;;38.96;34.59
76124;BME280;65173;48.066;20.976;2023-08-21T12:37:16;100730.31;;;39.13;35.13
76124;BME280;65173;48.066;20.976;2023-08-21T12:40:19;100726.50;;;39.05;33.78
76124;BME280;65173;48.066;20.976;2023-08-21T12:43:21;100731.06;;;38.65;33.34
76124;BME280;65173;48.066;20.976;2023-08-21T12:46:24;100724.75;;;39.13;32.62
76124;BME280;65173;48.066;20.976;2023-08-21T12:49:28;100732.25;;;38.96;33.74
76124;BME280;65173;48.066;20.976;2023-08-21T12:52:31;100724.63;;;38.22;33.73
76124;BME280;65173;48.066;20.976;2023-08-21T12:55:33;100724.47;;;38.05;34.32
76124;BME280;65173;48.066;20.976;2023-08-21T12:58:36;100717.91;;;38.08;33.94
76124;BME280;65173;48.066;20.976;2023-08-21T13:01:38;100709.13;;;38.47;34.06
76124;BME280;65173;48.066;20.976;2023-08-21T13:04:41;100712.91;;;38.44;34.60
76124;BME280;65173;48.066;20.976;2023-08-21T13:07:43;100714.31;;;39.08;33.80
76124;BME280;65173;48.066;20.976;2023-08-21T13:10:46;100704.63;;;39.63;32.73
76124;BME280;65173;48.066;20.976;2023-08-21T13:13:48;100708.38;;;38.52;30.98
76124;BME280;65173;48.066;20.976;2023-08-21T13:16:51;100705.94;;;38.60;34.85
76124;BME280;65173;48.066;20.976;2023-08-21T13:19:53;100709.28;;;38.32;35.17
76124;BME280;65173;48.066;20.976;2023-08-21T13:22:55;100699.19;;;38.09;34.72
76124;BME280;65173;48.066;20.976;2023-08-21T13:25:58;100688.31;;;38.79;35.67
76124;BME280;65173;48.066;20.976;2023-08-21T13:29:00;100696.56;;;38.00;32.93
76124;BME280;65173;48.066;20.976;2023-08-21T13:32:03;100686.00;;;37.78;36.06
76124;BME280;65173;48.066;20.976;2023-08-21T13:35:06;100685.69;;;37.96;36.32
76124;BME280;65173;48.066;20.976;2023-08-21T13:38:14;100674.97;;;38.15;35.16
76124;BME280;65173;48.066;20.976;2023-08-21T13:41:17;100675.19;;;38.11;35.54
76124;BME280;65173;48.066;20.976;2023-08-21T13:44:19;100679.34;;;37.70;34.48
76124;BME280;65173;48.066;20.976;2023-08-21T13:47:22;100678.03;;;37.65;35.95
76124;BME280;65173;48.066;20.976;2023-08-21T13:50:25;100677.97;;;37.85;36.28
76124;BME280;65173;48.066;20.976;2023-08-21T13:53:27;100675.88;;;37.75;36.55
76124;BME280;65173;48.066;20.976;2023-08-21T13:56:29;100685.34;;;37.88;36.89
76124;BME280;65173;48.066;20.976;2023-08-21T13:59:32;100674.00;;;37.66;36.25
76124;BME280;65173;48.066;20.976;2023-08-21T14:02:34;100675.88;;;37.75;36.82
76124;BME280;65173;48.066;20.976;2023-08-21T14:05:37;100666.69;;;37.69;34.40
76124;BME280;65173;48.066;20.976;2023-08-21T14:08:39;100674.13;;;37.77;37.58
76124;BME280;65173;48.066;20.976;2023-08-21T14:11:42;100668.31;;;37.55;35.85
76124;BME280;65173;48.066;20.976;2023-08-21T14:14:45;100671.34;;;37.57;35.35
76124;BME280;65173;48.066;20.976;2023-08-21T14:17:48;100660.66;;;36.69;35.60
76124;BME280;65173;48.066;20.976;2023-08-21T14:20:53;100657.38;;;36.70;35.71
76124;BME280;65173;48.066;20.976;2023-08-21T14:23:55;100654.63;;;36.56;36.76
76124;BME280;65173;48.066;20.976;2023-08-21T14:26:58;100643.09;;;36.42;38.13
76124;BME280;65173;48.066;20.976;2023-08-21T14:30:00;100644.25;;;36.71;36.17
76124;BME280;65173;48.066;20.976;2023-08-21T14:33:03;100641.56;;;36.41;37.22
76124;BME280;65173;48.066;20.976;2023-08-21T14:36:05;100643.38;;;36.44;37.13
76124;BME280;65173;48.066;20.976;2023-08-21T14:39:08;100635.44;;;36.37;35.32
76124;BME280;65173;48.066;20.976;2023-08-21T14:42:13;100636.63;;;36.16;36.48
76124;BME280;65173;48.066;20.976;2023-08-21T14:45:16;100635.75;;;36.60;37.17
76124;BME280;65173;48.066;20.976;2023-08-21T14:48:18;100638.13;;;36.46;39.34
76124;BME280;65173;48.066;20.976;2023-08-21T14:51:21;100632.41;;;36.56;34.70
76124;BME280;65173;48.066;20.976;2023-08-21T14:54:23;100624.34;;;36.37;35.56
76124;BME280;65173;48.066;20.976;2023-08-21T14:57:26;100628.59;;;36.33;36.92
76124;BME280;65173;48.066;20.976;2023-08-21T15:00:29;100632.59;;;36.02;36.85
76124;BME280;65173;48.066;20.976;2023-08-21T15:03:31;100633.56;;;36.14;37.42
76124;BME280;65173;48.066;20.976;2023-08-21T15:06:35;100627.81;;;36.17;38.31
76124;BME280;65173;48.066;20.976;2023-08-21T15:09:37;100624.00;;;36.15;36.44
76124;BME280;65173;48.066;20.976;2023-08-21T15:12:40;100625.19;;;35.79;36.76
76124;BME280;65173;48.066;20.976;2023-08-21T15:15:42;100624.59;;;35.90;36.71
76124;BME280;65173;48.066;20.976;2023-08-21T15:18:44;100620.38;;;35.94;38.19
76124;BME280;65173;48.066;20.976;2023-08-21T15:21:49;100625.34;;;36.05;36.76
76124;BME280;65173;48.066;20.976;2023-08-21T15:24:52;100610.91;;;35.86;37.08
76124;BME280;65173;48.066;20.976;2023-08-21T15:27:54;100620.84;;;35.63;38.51
76124;BME280;65173;48.066;20.976;2023-08-21T15:30:57;100620.72;;;35.43;38.95
76124;BME280;65173;48.066;20.976;2023-08-21T15:33:59;100614.50;;;35.48;39.61
76124;BME280;65173;48.066;20.976;2023-08-21T15:37:02;100616.41;;;35.27;38.65
76124;BME280;65173;48.066;20.976;2023-08-21T15:40:05;100613.16;;;35.05;38.99
76124;BME280;65173;48.066;20.976;2023-08-21T15:43:08;100611.28;;;35.11;38.83
76124;BME280;65173;48.066;20.976;2023-08-21T15:46:10;100612.84;;;34.88;38.33
76124;BME280;65173;48.066;20.976;2023-08-21T15:49:13;100611.66;;;34.80;39.79
76124;BME280;65173;48.066;20.976;2023-08-21T15:52:15;100605.72;;;34.63;40.03
76124;BME280;65173;48.066;20.976;2023-08-21T15:55:18;100613.97;;;34.48;40.65
76124;BME280;65173;48.066;20.976;2023-08-21T15:58:20;100607.25;;;34.64;40.53
76124;BME280;65173;48.066;20.976;2023-08-21T16:01:22;100606.72;;;34.51;40.50
76124;BME280;65173;48.066;20.976;2023-08-21T16:04:25;100609.28;;;34.31;40.94
76124;BME280;65173;48.066;20.976;2023-08-21T16:07:27;100610.56;;;34.11;42.03
76124;BME280;65173;48.066;20.976;2023-08-21T16:10:30;100619.53;;;33.97;42.34
76124;BME280;65173;48.066;20.976;2023-08-21T16:13:32;100616.41;;;34.13;41.75
76124;BME280;65173;48.066;20.976;2023-08-21T16:16:35;100612.47;;;33.87;42.40
76124;BME280;65173;48.066;20.976;2023-08-21T16:19:37;100615.84;;;33.91;43.76
76124;BME280;65173;48.066;20.976;2023-08-21T16:22:41;100623.25;;;33.76;41.91
76124;BME280;65173;48.066;20.976;2023-08-21T16:25:44;100616.78;;;33.70;42.18
76124;BME280;65173;48.066;20.976;2023-08-21T16:28:46;100619.56;;;33.70;42.95
76124;BME280;65173;48.066;20.976;2023-08-21T16:31:51;100616.38;;;33.62;44.76
76124;BME280;65173;48.066;20.976;2023-08-21T16:34:54;100619.16;;;33.44;46.39
76124;BME280;65173;48.066;20.976;2023-08-21T16:37:57;100619.75;;;33.11;45.29
76124;BME280;65173;48.066;20.976;2023-08-21T16:41:00;100611.63;;;33.26;47.73
76124;BME280;65173;48.066;20.976;2023-08-21T16:44:02;100616.03;;;33.15;47.58
76124;BME280;65173;48.066;20.976;2023-08-21T16:47:05;100607.97;;;32.62;48.67
76124;BME280;65173;48.066;20.976;2023-08-21T16:50:09;100615.34;;;32.25;51.36
76124;BME280;65173;48.066;20.976;2023-08-21T16:53:14;100613.00;;;32.14;53.19
76124;BME280;65173;48.066;20.976;2023-08-21T16:56:24;100621.81;;;32.22;52.25
76124;BME280;65173;48.066;20.976;2023-08-21T16:59:27;100605.59;;;32.02;49.09
76124;BME280;65173;48.066;20.976;2023-08-21T17:02:30;100612.09;;;31.86;48.76
76124;BME280;65173;48.066;20.976;2023-08-21T17:05:34;100621.06;;;31.78;49.56
76124;BME280;65173;48.066;20.976;2023-08-21T17:08:37;100618.72;;;31.54;51.22
76124;BME280;65173;48.066;20.976;2023-08-21T17:11:39;100618.28;;;31.56;50.56
76124;BME280;65173;48.066;20.976;2023-08-21T17:14:42;100627.84;;;31.42;52.56
76124;BME280;65173;48.066;20.976;2023-08-21T17:17:44;100621.88;;;31.09;54.01
76124;BME280;65173;48.066;20.976;2023-08-21T17:20:47;100629.41;;;30.96;53.27
76124;BME280;65173;48.066;20.976;2023-08-21T17:23:49;100630.19;;;30.71;51.69
76124;BME280;65173;48.066;20.976;2023-08-21T17:26:52;100629.31;;;30.49;51.67
76124;BME280;65173;48.066;20.976;2023-08-21T17:29:55;100627.78;;;30.35;53.50
76124;BME280;65173;48.066;20.976;2023-08-21T17:32:57;100623.81;;;30.23;54.07
76124;BME280;65173;48.066;20.976;2023-08-21T17:36:03;100630.28;;;30.29;59.83
76124;BME280;65173;48.066;20.976;2023-08-21T17:39:06;100624.13;;;30.13;63.42
76124;BME280;65173;48.066;20.976;2023-08-21T17:42:09;100628.31;;;29.76;72.57
76124;BME280;65173;48.066;20.976;2023-08-21T17:45:12;100626.09;;;29.42;74.75
76124;BME280;65173;48.066;20.976;2023-08-21T17:48:14;100630.50;;;29.23;75.84
76124;BME280;65173;48.066;20.976;2023-08-21T17:51:17;100638.16;;;29.15;76.32
76124;BME280;65173;48.066;20.976;2023-08-21T17:54:19;100638.59;;;28.97;76.27
76124;BME280;65173;48.066;20.976;2023-08-21T17:57:22;100645.34;;;28.77;77.80
76124;BME280;65173;48.066;20.976;2023-08-21T18:00:25;100642.50;;;28.48;79.36
76124;BME280;65173;48.066;20.976;2023-08-21T18:03:28;100644.44;;;28.11;85.42
76124;BME280;65173;48.066;20.976;2023-08-21T18:06:30;100643.94;;;27.96;87.50
76124;BME280;65173;48.066;20.976;2023-08-21T18:09:33;100650.41;;;27.86;87.51
76124;BME280;65173;48.066;20.976;2023-08-21T18:12:38;100658.22;;;27.68;83.50
76124;BME280;65173;48.066;20.976;2023-08-21T18:15:40;100650.63;;;27.76;84.98
76124;BME280;65173;48.066;20.976;2023-08-21T18:18:43;100661.44;;;27.83;84.61
76124;BME280;65173;48.066;20.976;2023-08-21T18:21:47;100657.78;;;27.89;84.98
76124;BME280;65173;48.066;20.976;2023-08-21T18:24:50;100663.41;;;27.82;84.56
76124;BME280;65173;48.066;20.976;2023-08-21T18:27:53;100670.13;;;27.78;85.04
76124;BME280;65173;48.066;20.976;2023-08-21T18:30:56;100669.53;;;27.70;84.88
76124;BME280;65173;48.066;20.976;2023-08-21T18:33:59;100675.19;;;27.59;85.92
76124;BME280;65173;48.066;20.976;2023-08-21T18:37:01;100665.84;;;27.57;86.46
76124;BME280;65173;48.066;20.976;2023-08-21T18:40:06;100675.00;;;27.47;84.74
76124;BME280;65173;48.066;20.976;2023-08-21T18:43:10;100678.41;;;27.31;84.93
76124;BME280;65173;48.066;20.976;2023-08-21T18:46:12;100682.22;;;27.37;84.88
76124;BME280;65173;48.066;20.976;2023-08-21T18:49:16;100689.16;;;27.42;83.97
76124;BME280;65173;48.066;20.976;2023-08-21T18:52:18;100690.13;;;27.31;83.86
76124;BME280;65173;48.066;20.976;2023-08-21T18:55:21;100686.41;;;27.22;82.74
76124;BME280;65173;48.066;20.976;2023-08-21T18:58:23;100692.91;;;27.28;82.64
76124;BME280;65173;48.066;20.976;2023-08-21T19:01:26;100697.56;;;27.31;81.83
76124;BME280;65173;48.066;20.976;2023-08-21T19:04:30;100695.72;;;27.24;81.28
76124;BME280;65173;48.066;20.976;2023-08-21T19:07:32;100692.50;;;27.29;77.72
76124;BME280;65173;48.066;20.976;2023-08-21T19:10:35;100706.47;;;27.12;79.81
76124;BME280;65173;48.066;20.976;2023-08-21T19:13:37;100699.16;;;27.05;86.02
76124;BME280;65173;48.066;20.976;2023-08-21T19:16:40;100694.56;;;26.99;87.66
76124;BME280;65173;48.066;20.976;2023-08-21T19:19:43;100694.19;;;26.70;89.49
76124;BME280;65173;48.066;20.976;2023-08-21T19:22:45;100707.78;;;25.30;100.00
76124;BME280;65173;48.066;20.976;2023-08-21T19:25:48;100704.81;;;25.62;100.00